createdAt,value
2022-10-23T00:01:14.367Z,98674.75
2022-10-23T00:03:41.271Z,98666.75
2022-10-23T00:06:09.538Z,98678.41
2022-10-23T00:08:36.400Z,98689.75
2022-10-23T00:11:07.821Z,98693.16
2022-10-23T00:13:34.718Z,98699.13
2022-10-23T00:16:01.722Z,98698.09
2022-10-23T00:18:28.534Z,98705.94
2022-10-23T00:20:56.173Z,98703.38
2022-10-23T00:23:23.222Z,98710.38
2022-10-23T00:25:50.195Z,98712.78
2022-10-23T00:28:16.993Z,98720.63
2022-10-23T00:30:44.026Z,98718.00
2022-10-23T00:33:11.123Z,98720.53
2022-10-23T00:35:42.477Z,98722.25
2022-10-23T00:38:09.800Z,98724.72
2022-10-23T00:40:38.383Z,98726.44
2022-10-23T00:43:07.203Z,98733.47
2022-10-23T00:45:34.653Z,98742.13
2022-10-23T00:48:02.420Z,98745.59
2022-10-23T00:50:32.974Z,98746.63
2022-10-23T00:53:03.924Z,98750.81
2022-10-23T00:55:32.283Z,98745.44
2022-10-23T00:57:59.249Z,98753.38
2022-10-23T01:00:29.648Z,98748.94
2022-10-23T01:02:57.680Z,98754.06
2022-10-23T01:05:30.432Z,98753.91
2022-10-23T01:08:04.375Z,98755.66
2022-10-23T01:10:50.136Z,98757.47
2022-10-23T01:13:22.930Z,98758.50
2022-10-23T01:16:02.013Z,98768.22
2022-10-23T01:18:58.427Z,98760.19
2022-10-23T01:21:43.557Z,98771.63
2022-10-23T01:24:47.050Z,98772.31
2022-10-23T01:27:26.602Z,98774.69
2022-10-23T01:29:53.311Z,98762.56
2022-10-23T01:32:34.134Z,98765.91
2022-10-23T01:35:13.980Z,98773.84
2022-10-23T01:37:46.725Z,98776.41
2022-10-23T01:40:48.338Z,98782.72
2022-10-23T01:43:24.145Z,98783.41
2022-10-23T01:46:03.040Z,98791.31
2022-10-23T01:48:34.149Z,98784.34
2022-10-23T01:51:05.853Z,98792.09
2022-10-23T01:53:38.564Z,98794.50
2022-10-23T01:56:12.005Z,98796.28
2022-10-23T01:58:42.702Z,98803.19
2022-10-23T02:01:11.408Z,98799.69
2022-10-23T02:03:41.495Z,98806.59
2022-10-23T02:06:08.388Z,98803.97
2022-10-23T02:08:35.901Z,98802.34
2022-10-23T02:11:11.249Z,98806.59
2022-10-23T02:13:47.413Z,98814.53
2022-10-23T02:16:16.854Z,98816.25
2022-10-23T02:19:07.654Z,98818.88
2022-10-23T02:21:53.193Z,98826.66
2022-10-23T02:24:30.135Z,98829.13
2022-10-23T02:27:01.213Z,98832.72
2022-10-23T02:29:38.964Z,98841.50
2022-10-23T02:32:09.752Z,98847.56
2022-10-23T02:34:37.276Z,98841.25
2022-10-23T02:37:04.161Z,98850.16
2022-10-23T02:39:31.281Z,98856.34
2022-10-23T02:42:05.205Z,98866.09
2022-10-23T02:45:18.775Z,98867.88
2022-10-23T02:47:54.615Z,98866.78
2022-10-23T02:50:40.246Z,98866.78
2022-10-23T02:53:42.621Z,98873.78
2022-10-23T02:56:17.967Z,98876.22
2022-10-23T02:59:04.525Z,98872.75
2022-10-23T03:01:44.646Z,98875.22
2022-10-23T03:04:13.458Z,98884.69
2022-10-23T03:06:40.773Z,98876.09
2022-10-23T03:09:09.548Z,98876.94
2022-10-23T03:11:36.630Z,98875.22
2022-10-23T03:14:03.427Z,98874.88
2022-10-23T03:16:30.416Z,98880.09
2022-10-23T03:18:57.266Z,98880.88
2022-10-23T03:21:24.437Z,98892.91
2022-10-23T03:23:51.327Z,98886.09
2022-10-23T03:26:18.250Z,98889.56
2022-10-23T03:28:45.052Z,98893.06
2022-10-23T03:31:12.258Z,98890.28
2022-10-23T03:33:39.047Z,98892.31
2022-10-23T03:36:06.338Z,98900.31
2022-10-23T03:38:33.182Z,98899.25
2022-10-23T03:41:00.162Z,98899.16
2022-10-23T03:43:26.883Z,98902.66
2022-10-23T03:45:53.874Z,98907.88
2022-10-23T03:48:20.701Z,98908.72
2022-10-23T03:50:47.748Z,98919.50
2022-10-23T03:53:14.521Z,98910.53
2022-10-23T03:55:41.494Z,98916.66
2022-10-23T03:58:08.308Z,98920.34
2022-10-23T04:00:35.346Z,98918.53
2022-10-23T04:03:02.202Z,98923.66
2022-10-23T04:05:29.517Z,98920.94
2022-10-23T04:07:57.055Z,98920.00
2022-10-23T04:10:24.081Z,98921.88
2022-10-23T04:12:51.027Z,98926.16
2022-10-23T04:15:18.044Z,98915.56
2022-10-23T04:17:44.927Z,98921.53
2022-10-23T04:20:12.029Z,98927.69
2022-10-23T04:22:38.796Z,98925.06
2022-10-23T04:25:06.043Z,98920.78
2022-10-23T04:27:34.510Z,98931.19
2022-10-23T04:30:03.759Z,98924.09
2022-10-23T04:32:31.484Z,98928.53
2022-10-23T04:34:58.638Z,98935.47
2022-10-23T04:37:25.564Z,98938.09
2022-10-23T04:39:52.632Z,98937.06
2022-10-23T04:42:19.774Z,98935.47
2022-10-23T04:44:46.971Z,98933.75
2022-10-23T04:47:13.991Z,98940.56
2022-10-23T04:49:40.994Z,98941.53
2022-10-23T04:52:07.865Z,98933.00
2022-10-23T04:54:39.142Z,98943.47
2022-10-23T04:57:06.276Z,98945.13
2022-10-23T04:59:33.207Z,98943.31
2022-10-23T05:02:00.477Z,98936.31
2022-10-23T05:04:27.495Z,98951.16
2022-10-23T05:06:54.315Z,98943.31
2022-10-23T05:09:22.504Z,98941.53
2022-10-23T05:11:49.354Z,98945.97
2022-10-23T05:14:20.655Z,98939.72
2022-10-23T05:16:59.447Z,98943.31
2022-10-23T05:19:32.018Z,98945.00
2022-10-23T05:21:59.276Z,98946.75
2022-10-23T05:24:26.885Z,98958.19
2022-10-23T05:26:53.990Z,98952.97
2022-10-23T05:29:21.139Z,98961.59
2022-10-23T05:31:52.726Z,98967.91
2022-10-23T05:34:22.218Z,98968.84
2022-10-23T05:36:49.432Z,98969.69
2022-10-23T05:39:16.976Z,98971.47
2022-10-23T05:41:44.146Z,98982.66
2022-10-23T05:44:11.303Z,98973.81
2022-10-23T05:46:42.777Z,98978.25
2022-10-23T05:49:09.926Z,98977.56
2022-10-23T05:51:38.128Z,98989.69
2022-10-23T05:54:09.349Z,98986.84
2022-10-23T05:56:38.664Z,98992.09
2022-10-23T05:59:05.890Z,98984.91
2022-10-23T06:01:33.041Z,99006.69
2022-10-23T06:04:01.223Z,99010.03
2022-10-23T06:06:28.352Z,99010.69
2022-10-23T06:08:55.527Z,99020.13
2022-10-23T06:11:23.183Z,99019.16
2022-10-23T06:13:50.453Z,99021.72
2022-10-23T06:16:20.133Z,99024.31
2022-10-23T06:18:48.062Z,99037.28
2022-10-23T06:21:16.061Z,99041.50
2022-10-23T06:23:45.753Z,99034.91
2022-10-23T06:26:15.174Z,99035.56
2022-10-23T06:28:42.835Z,99037.03
2022-10-23T06:31:12.375Z,99036.69
2022-10-23T06:33:39.643Z,99044.22
2022-10-23T06:36:10.380Z,99044.03
2022-10-23T06:38:40.661Z,99044.38
2022-10-23T06:41:13.144Z,99045.91
2022-10-23T06:43:40.293Z,99039.84
2022-10-23T06:46:07.307Z,99037.50
2022-10-23T06:48:34.287Z,99038.44
2022-10-23T06:51:05.981Z,99035.28
2022-10-23T06:53:33.620Z,99044.75
2022-10-23T06:56:02.059Z,99041.19
2022-10-23T06:58:29.581Z,99044.91
2022-10-23T07:01:00.951Z,99047.97
2022-10-23T07:03:28.119Z,99046.47
2022-10-23T07:05:55.192Z,99047.91
2022-10-23T07:08:22.230Z,99039.03
2022-10-23T07:10:49.441Z,99045.69
2022-10-23T07:13:16.278Z,99039.66
2022-10-23T07:15:44.011Z,99036.19
2022-10-23T07:18:14.658Z,99038.59
2022-10-23T07:20:42.202Z,99037.66
2022-10-23T07:23:12.089Z,99044.19
2022-10-23T07:25:39.186Z,99044.19
2022-10-23T07:28:06.134Z,99040.34
2022-10-23T07:30:33.239Z,99049.09
2022-10-23T07:33:00.164Z,99048.66
2022-10-23T07:35:27.229Z,99056.16
2022-10-23T07:37:54.073Z,99049.03
2022-10-23T07:40:21.937Z,99058.00
2022-10-23T07:42:48.745Z,99051.72
2022-10-23T07:45:16.001Z,99053.28
2022-10-23T07:47:43.048Z,99042.16
2022-10-23T07:50:10.253Z,99047.09
2022-10-23T07:52:37.195Z,99049.34
2022-10-23T07:55:04.596Z,99050.06
2022-10-23T07:57:31.557Z,99047.78
2022-10-23T07:59:58.660Z,99040.56
2022-10-23T08:02:25.537Z,99058.88
2022-10-23T08:04:52.834Z,99060.13
2022-10-23T08:07:19.856Z,99064.50
2022-10-23T08:09:47.023Z,99063.00
2022-10-23T08:12:13.901Z,99066.41
2022-10-23T08:14:41.091Z,99071.78
2022-10-23T08:17:09.982Z,99071.03
2022-10-23T08:19:37.357Z,99071.81
2022-10-23T08:22:04.329Z,99082.97
2022-10-23T08:24:31.473Z,99076.03
2022-10-23T08:26:58.890Z,99073.34
2022-10-23T08:29:25.942Z,99084.16
2022-10-23T08:31:56.433Z,99081.75
2022-10-23T08:34:24.266Z,99089.03
2022-10-23T08:36:51.587Z,99097.31
2022-10-23T08:39:18.768Z,99091.63
2022-10-23T08:41:51.378Z,99091.16
2022-10-23T08:44:18.465Z,99099.66
2022-10-23T08:46:50.833Z,99097.63
2022-10-23T08:49:47.587Z,99101.97
2022-10-23T08:52:22.015Z,99107.09
2022-10-23T08:55:10.378Z,99104.16
2022-10-23T08:57:44.244Z,99107.72
2022-10-23T09:00:16.897Z,99108.34
2022-10-23T09:02:48.999Z,99105.19
2022-10-23T09:05:25.273Z,99114.88
2022-10-23T09:08:07.733Z,99116.72
2022-10-23T09:11:02.112Z,99118.41
2022-10-23T09:13:35.989Z,99122.06
2022-10-23T09:16:11.901Z,99124.75
2022-10-23T09:18:42.031Z,99131.63
2022-10-23T09:21:12.196Z,99135.81
2022-10-23T09:23:39.476Z,99137.00
2022-10-23T09:26:16.521Z,99141.84
2022-10-23T09:28:50.729Z,99143.75
2022-10-23T09:31:19.253Z,99144.00
2022-10-23T09:34:01.374Z,99157.00
2022-10-23T09:36:29.586Z,99149.97
2022-10-23T09:38:59.083Z,99149.78
2022-10-23T09:41:40.328Z,99145.34
2022-10-23T09:44:07.386Z,99138.59
2022-10-23T09:46:43.604Z,99148.09
2022-10-23T09:49:38.251Z,99137.84
2022-10-23T09:52:22.903Z,99140.31
2022-10-23T09:54:58.339Z,99132.16
2022-10-23T09:57:43.026Z,99130.84
2022-10-23T10:00:27.770Z,99130.22
2022-10-23T10:02:56.279Z,99127.28
2022-10-23T10:05:32.107Z,99140.06
2022-10-23T10:08:40.279Z,99129.25
2022-10-23T10:11:16.057Z,99134.09
2022-10-23T10:14:31.090Z,99143.75
2022-10-23T10:17:10.969Z,99138.47
2022-10-23T10:20:15.595Z,99142.13
2022-10-23T10:23:04.482Z,99127.03
2022-10-23T10:25:52.055Z,99128.22
2022-10-23T10:28:31.769Z,99130.69
2022-10-23T10:31:30.608Z,99127.03
2022-10-23T10:34:25.600Z,99116.41
2022-10-23T10:37:14.185Z,99127.50
2022-10-23T10:39:45.942Z,99122.56
2022-10-23T10:42:24.957Z,99121.66
2022-10-23T10:44:51.906Z,99118.44
2022-10-23T10:47:37.551Z,99114.81
2022-10-23T10:50:28.778Z,99124.69
2022-10-23T10:53:01.549Z,99119.16
2022-10-23T10:55:36.716Z,99118.97
2022-10-23T10:58:14.836Z,99112.31
2022-10-23T11:00:44.974Z,99103.16
2022-10-23T11:03:28.199Z,99092.53
2022-10-23T11:05:57.501Z,99089.22
2022-10-23T11:08:44.566Z,99086.81
2022-10-23T11:11:43.671Z,99092.88
2022-10-23T11:14:17.900Z,99085.13
2022-10-23T11:16:53.664Z,99080.84
2022-10-23T11:19:22.699Z,99081.88
2022-10-23T11:22:12.482Z,99076.88
2022-10-23T11:25:21.438Z,99076.31
2022-10-23T11:40:08.271Z,99045.69
2022-10-23T11:42:41.721Z,99049.75
2022-10-23T11:45:40.254Z,99037.09
2022-10-23T11:48:42.510Z,99042.84
2022-10-23T11:51:38.369Z,99034.16
2022-10-23T11:54:24.465Z,99032.78
2022-10-23T11:57:12.472Z,99040.50
2022-10-23T11:59:49.183Z,99045.22
2022-10-23T12:02:27.263Z,99041.41
2022-10-23T12:04:55.429Z,99036.84
2022-10-23T12:07:27.339Z,99034.25
2022-10-23T12:10:02.102Z,99026.22
2022-10-23T12:12:40.974Z,99026.94
2022-10-23T12:15:08.000Z,99019.31
2022-10-23T12:17:38.084Z,99018.44
2022-10-23T12:20:08.064Z,99013.75
2022-10-23T12:22:53.588Z,99012.63
2022-10-23T12:25:26.863Z,99005.97
2022-10-23T12:28:06.212Z,99008.09
2022-10-23T12:30:49.929Z,99010.94
2022-10-23T12:33:38.679Z,99009.97
2022-10-23T12:36:14.487Z,98999.63
2022-10-23T12:38:48.485Z,99005.16
2022-10-23T12:41:16.440Z,99004.31
2022-10-23T12:43:50.299Z,98998.22
2022-10-23T12:46:20.475Z,99000.06
2022-10-23T12:48:52.743Z,98996.47
2022-10-23T12:51:25.418Z,98992.00
2022-10-23T12:53:52.227Z,98984.78
2022-10-23T12:56:19.845Z,98990.47
2022-10-23T12:59:00.989Z,98994.19
2022-10-23T13:01:34.288Z,98997.44
2022-10-23T13:04:10.532Z,99002.03
2022-10-23T13:06:38.961Z,98995.97
2022-10-23T13:09:15.224Z,98988.13
2022-10-23T13:11:42.979Z,98984.41
2022-10-23T13:14:14.376Z,98981.66
2022-10-23T13:16:41.322Z,98981.84
2022-10-23T13:19:22.769Z,98977.13
2022-10-23T13:21:49.861Z,98975.94
2022-10-23T13:24:21.190Z,98976.16
2022-10-23T13:26:49.105Z,98970.66
2022-10-23T13:31:55.947Z,98969.59
2022-10-23T13:34:26.388Z,98965.41
2022-10-23T13:36:58.782Z,98978.19
2022-10-23T13:39:30.550Z,98979.03
2022-10-23T13:42:01.644Z,98980.09
2022-10-23T13:44:29.042Z,98969.97
2022-10-23T13:46:56.290Z,98964.41
2022-10-23T13:49:23.143Z,98969.56
2022-10-23T13:51:56.263Z,98973.25
2022-10-23T13:54:25.974Z,98961.00
2022-10-23T13:56:56.095Z,98971.72
2022-10-23T13:59:23.500Z,98965.06
2022-10-23T14:01:51.414Z,98963.06
2022-10-23T14:04:19.190Z,98950.31
2022-10-23T14:06:46.565Z,98949.91
2022-10-23T14:09:15.804Z,98949.72
2022-10-23T14:11:43.267Z,98951.59
2022-10-23T14:14:10.503Z,98941.25
2022-10-23T14:16:37.880Z,98951.78
2022-10-23T14:19:04.733Z,98952.78
2022-10-23T14:21:31.866Z,98948.41
2022-10-23T14:23:58.670Z,98947.81
2022-10-23T14:26:28.990Z,98947.44
2022-10-23T14:28:59.340Z,98954.50
2022-10-23T14:31:29.635Z,98956.03
2022-10-23T14:33:58.917Z,98947.06
2022-10-23T14:36:30.920Z,98949.66
2022-10-23T14:39:05.515Z,98945.16
2022-10-23T14:41:32.582Z,98947.75
2022-10-23T14:43:59.523Z,98947.78
2022-10-23T14:46:27.956Z,98937.22
2022-10-23T14:48:57.454Z,98936.53
2022-10-23T14:51:30.312Z,98937.00
2022-10-23T14:54:01.521Z,98934.13
2022-10-23T14:56:30.261Z,98931.06
2022-10-23T14:59:02.734Z,98926.38
2022-10-23T15:01:33.272Z,98928.66
2022-10-23T15:04:00.390Z,98930.91
2022-10-23T15:06:27.406Z,98932.31
2022-10-23T15:08:57.033Z,98942.50
2022-10-23T15:11:25.190Z,98947.31
2022-10-23T15:13:52.262Z,98948.78
2022-10-23T15:16:19.241Z,98948.41
2022-10-23T15:18:46.089Z,98945.41
2022-10-23T15:21:13.692Z,98951.69
2022-10-23T15:23:43.028Z,98952.75
2022-10-23T15:26:16.687Z,98965.50
2022-10-23T15:28:43.473Z,98965.06
2022-10-23T15:31:44.483Z,98961.97
2022-10-23T15:34:20.564Z,98970.84
2022-10-23T15:36:48.216Z,98969.38
2022-10-23T15:39:18.164Z,98962.56
2022-10-23T15:41:45.395Z,98971.00
2022-10-23T15:44:15.193Z,98956.16
2022-10-23T15:46:42.316Z,98966.72
2022-10-23T15:49:09.910Z,98958.75
2022-10-23T15:51:38.299Z,98961.34
2022-10-23T15:54:11.007Z,98954.03
2022-10-23T15:56:38.203Z,98955.66
2022-10-23T15:59:05.044Z,98960.94
2022-10-23T16:01:32.109Z,98958.72
2022-10-23T16:03:58.963Z,98955.00
2022-10-23T16:06:26.365Z,98963.00
2022-10-23T16:11:24.509Z,98961.22
2022-10-23T16:13:51.733Z,98961.13
2022-10-23T16:16:18.841Z,98959.97
2022-10-23T16:18:46.510Z,98964.16
2022-10-23T16:21:28.570Z,98959.53
2022-10-23T16:23:59.965Z,98968.06
2022-10-23T16:26:29.277Z,98961.41
2022-10-23T16:28:58.102Z,98963.78
2022-10-23T16:31:25.958Z,98965.16
2022-10-23T16:33:53.202Z,98964.84
2022-10-23T16:36:21.212Z,98966.44
2022-10-23T16:38:47.979Z,98966.06
2022-10-23T16:41:15.061Z,98970.06
2022-10-23T16:43:41.825Z,98960.19
2022-10-23T16:46:14.395Z,98968.50
2022-10-23T16:48:41.935Z,98966.19
2022-10-23T16:51:12.595Z,98977.06
2022-10-23T16:53:40.143Z,98972.19
2022-10-23T16:56:08.976Z,98981.09
2022-10-23T16:58:36.363Z,98986.63
2022-10-23T17:01:07.742Z,98986.72
2022-10-23T17:03:41.351Z,98989.44
2022-10-23T17:06:11.618Z,98981.66
2022-10-23T17:08:38.947Z,98981.72
2022-10-23T17:11:10.114Z,98980.16
2022-10-23T17:13:39.767Z,98981.19
2022-10-23T17:16:11.146Z,98983.75
2022-10-23T17:18:43.658Z,98988.25
2022-10-23T17:21:12.870Z,98994.47
2022-10-23T17:23:39.740Z,98990.91
2022-10-23T17:26:09.172Z,98988.16
2022-10-23T17:28:41.714Z,98996.03
2022-10-23T17:31:21.687Z,98989.72
2022-10-23T17:33:51.592Z,98998.22
2022-10-23T17:36:21.053Z,98997.06
2022-10-23T17:38:48.187Z,98997.84
2022-10-23T17:41:17.184Z,98991.31
2022-10-23T17:43:44.621Z,98981.34
2022-10-23T17:46:13.176Z,98986.56
2022-10-23T17:48:43.452Z,98986.34
2022-10-23T17:51:15.073Z,98988.91
2022-10-23T17:53:44.355Z,98989.44
2022-10-23T17:56:18.934Z,98978.63
2022-10-23T17:58:46.521Z,98976.75
2022-10-23T18:01:15.689Z,98977.97
2022-10-23T18:03:42.883Z,98972.44
2022-10-23T18:06:24.528Z,98978.28
2022-10-23T18:08:55.212Z,98965.66
2022-10-23T18:11:31.513Z,98966.97
2022-10-23T18:16:27.755Z,98969.53
2022-10-23T18:18:55.318Z,98971.91
2022-10-23T18:21:24.138Z,98973.59
2022-10-23T18:23:51.658Z,98966.38
2022-10-23T18:26:24.368Z,98970.47
2022-10-23T18:28:53.705Z,98967.72
2022-10-23T18:31:21.548Z,98973.81
2022-10-23T18:33:48.355Z,98969.22
2022-10-23T18:36:17.556Z,98964.50
2022-10-23T18:38:44.753Z,98972.25
2022-10-23T18:41:11.903Z,98974.91
2022-10-23T18:43:43.666Z,98976.78
2022-10-23T18:46:15.378Z,98978.78
2022-10-23T18:48:43.477Z,98985.00
2022-10-23T18:51:26.269Z,98977.38
2022-10-23T18:53:53.443Z,98972.97
2022-10-23T18:56:23.539Z,98981.91
2022-10-23T18:58:52.610Z,98976.00
2022-10-23T19:01:21.472Z,98980.38
2022-10-23T19:03:48.785Z,98970.88
2022-10-23T19:06:16.904Z,98969.28
2022-10-23T19:08:44.822Z,98967.53
2022-10-23T19:11:13.739Z,98965.16
2022-10-23T19:13:41.977Z,98962.50
2022-10-23T19:16:16.386Z,98960.69
2022-10-23T19:18:53.396Z,98970.44
2022-10-23T19:21:24.470Z,98965.25
2022-10-23T19:23:52.420Z,98957.47
2022-10-23T19:26:19.441Z,98965.53
2022-10-23T19:28:49.203Z,98968.25
2022-10-23T19:31:16.215Z,98970.91
2022-10-23T19:33:43.043Z,98966.56
2022-10-23T19:36:14.182Z,98960.56
2022-10-23T19:38:42.147Z,98967.72
2022-10-23T19:41:09.686Z,98961.84
2022-10-23T19:43:37.844Z,98966.44
2022-10-23T19:46:09.253Z,98968.47
2022-10-23T19:48:42.507Z,98964.19
2022-10-23T19:51:09.712Z,98962.47
2022-10-23T19:53:37.397Z,98965.28
2022-10-23T19:56:06.503Z,98967.88
2022-10-23T19:58:33.467Z,98966.06
2022-10-23T20:01:16.598Z,98967.00
2022-10-23T20:03:48.898Z,98962.47
2022-10-23T20:06:20.262Z,98961.50
2022-10-23T20:08:47.055Z,98964.03
2022-10-23T20:11:32.287Z,98962.22
2022-10-23T20:13:59.531Z,98964.66
2022-10-23T20:16:30.168Z,98960.28
2022-10-23T20:18:57.768Z,98965.66
2022-10-23T20:21:25.430Z,98963.00
2022-10-23T20:23:52.504Z,98957.66
2022-10-23T20:26:21.976Z,98960.47
2022-10-23T20:28:51.514Z,98964.28
2022-10-23T20:31:19.666Z,98970.50
2022-10-23T20:33:46.617Z,98967.53
2022-10-23T20:36:35.152Z,98965.66
2022-10-23T20:39:05.182Z,98962.34
2022-10-23T20:41:33.781Z,98956.25
2022-10-23T20:44:00.897Z,98954.66
2022-10-23T20:46:28.067Z,98952.84
2022-10-23T20:48:54.892Z,98950.44
2022-10-23T20:51:23.725Z,98946.94
2022-10-23T20:53:53.111Z,98945.22
2022-10-23T20:56:32.372Z,98939.16
2022-10-23T20:59:08.232Z,98946.94
2022-10-23T21:01:35.845Z,98951.53
2022-10-23T21:04:03.521Z,98967.66
2022-10-23T21:06:46.118Z,98949.38
2022-10-23T21:09:22.425Z,98973.34
2022-10-23T21:11:49.748Z,98974.44
2022-10-23T21:14:16.645Z,98971.09
2022-10-23T21:16:46.505Z,98972.28
2022-10-23T21:19:15.860Z,98977.78
2022-10-23T21:21:43.793Z,98971.84
2022-10-23T21:24:15.130Z,98976.38
2022-10-23T21:26:42.886Z,98968.59
2022-10-23T21:29:25.013Z,98961.63
2022-10-23T21:31:55.160Z,98968.59
2022-10-23T21:34:22.871Z,98969.44
2022-10-23T21:39:36.955Z,98967.66
2022-10-23T21:42:03.994Z,98965.97
2022-10-23T21:44:30.740Z,98970.47
2022-10-23T21:46:57.746Z,98963.50
2022-10-23T21:49:24.480Z,98954.69
2022-10-23T21:51:51.565Z,98956.53
2022-10-23T21:54:18.378Z,98954.69
2022-10-23T21:56:50.392Z,98945.00
2022-10-23T21:59:20.654Z,98951.25
2022-10-23T22:01:49.146Z,98952.97
2022-10-23T22:04:17.454Z,98955.63
2022-10-23T22:06:46.349Z,98951.97
2022-10-23T22:09:17.469Z,98951.97
2022-10-23T22:11:44.828Z,98955.38
2022-10-23T22:14:11.685Z,98963.50
2022-10-23T22:16:38.656Z,98955.63
2022-10-23T22:19:05.411Z,98963.56
2022-10-23T22:21:32.426Z,98964.47
2022-10-23T22:24:00.588Z,98973.34
2022-10-23T22:26:37.517Z,98971.72
2022-10-23T22:29:10.907Z,98970.63
2022-10-23T22:31:38.834Z,98956.47
2022-10-23T22:34:24.990Z,98962.53
2022-10-23T22:36:57.035Z,98965.19
2022-10-23T22:39:24.156Z,98964.34
2022-10-23T22:41:51.247Z,98974.91
2022-10-23T22:44:18.566Z,98981.81
2022-10-23T22:46:46.588Z,98976.38
2022-10-23T22:49:13.542Z,98978.16
2022-10-23T22:51:40.893Z,98977.25
2022-10-23T22:54:07.765Z,98969.31
2022-10-23T22:56:35.216Z,98972.81
2022-10-23T22:59:02.979Z,98959.66
2022-10-23T23:01:34.315Z,98964.81
2022-10-23T23:04:08.961Z,98962.69
2022-10-23T23:06:48.581Z,98961.75
2022-10-23T23:09:18.023Z,98958.88
2022-10-23T23:11:51.592Z,98962.31
2022-10-23T23:14:23.404Z,98968.19
2022-10-23T23:16:52.790Z,98946.91
2022-10-23T23:19:19.975Z,98946.81
2022-10-23T23:21:47.026Z,98932.25
2022-10-23T23:24:14.097Z,98935.75
2022-10-23T23:26:41.233Z,98940.13
2022-10-23T23:29:08.064Z,98946.06
2022-10-23T23:31:35.061Z,98942.69
2022-10-23T23:34:01.808Z,98946.84
2022-10-23T23:36:29.117Z,98951.53
2022-10-23T23:38:57.604Z,98945.53
2022-10-23T23:41:26.397Z,98938.50
2022-10-23T23:43:54.864Z,98955.44
2022-10-23T23:46:22.418Z,98941.28
2022-10-23T23:48:49.892Z,98941.13
2022-10-23T23:51:19.545Z,98937.72
2022-10-23T23:53:46.783Z,98942.22
2022-10-23T23:56:14.236Z,98936.09
2022-10-23T23:58:41.133Z,98934.28
